Algodones, NM

8:44 PM MDT on May 22, 2015 (GMT -0600)
On The Loop | | Change Station
CLOSE
Current Station
Personal Weather Station
Location: Placitas, NM
Elevation: 5260 ft
Nearby Weather Stations

Elev 5260 ft 35.34 °N, 106.50 °W | Updated 12 minutes ago

Partly Cloudy
Partly Cloudy
70.4 °F
Feels Like 75 °F
N
7.0
Wind Variable Wind from SE
Gusts 7.0 mph

Today
High -- | Low -- °F
--% Chance of Precip.
Yesterday
High -- | Low -- °F
Precip. -- in
5:56 AM 8:08 PM
Waxing Crescent, 26% visible
Pressure 29.73 in
Visibility 10.0 miles
Clouds Few 9500 ft
Few 25000 ft
Heat Index 75 °F
Dew Point 33 °F
Humidity 25%
Rainfall 0.00 in
Snow Depth Not available.
UV 0.0 out of 12
Pollen 3.90 out of 12
Air Quality Not available.
Flu Activity Local Activity
METAR KABQ 230152Z 16019G31KT 10SM FEW095 FEW250 22/01 A2991 RMK AO2 PK WND 17031/0144 SLP066 T02170006

More Conditions Fewer Conditions

Pressure 29.73 in
Visibility 10.0 miles
Clouds Few 9500 ft
Few 25000 ft
Heat Index 75 °F
Dew Point 33 °F
Humidity 25%
Rainfall 0.00 in
Snow Depth Not available.
UV 0.0 out of 12
Pollen 3.90 out of 12
Air Quality Not available.
Flu Activity Local Activity
METAR KABQ 230152Z 16019G31KT 10SM FEW095 FEW250 22/01 A2991 RMK AO2 PK WND 17031/0144 SLP066 T02170006

More Conditions Fewer Conditions

10-Day Weather Forecast

Almanac

Astronomy

May. 22, 2015 Rise Set
Actual Time
Civil Twilight
Nautical Twilight
Astronomical Twilight
Moon
Length of Visible Light
Length of Day
Tomorrow will be .
, % of the Moon is Illuminated

Today's Extremes

State Highs State Lows

Community

WunderPhotos

Upload Photos

1,823,371 photos uploaded!

WunderBlogs® & News

Nearby

Air Quality

  Air Quality AQ Index Pollutant
Not available.

Snow Depth

Station Depth Elevation

Earthquake Activity

City Distance Mag. Time & Date
Minimum magnitude displayed is 2.5.

Coastal Water Temperatures

Place Temperature

Stations

Nearby Weather Stations

Station Location Temp. Windchill Dew Point Humidity Wind Precip. Elev Updated Type